createdAt,value
2022-11-12T00:01:24.222Z,7.43
2022-11-12T00:04:29.018Z,8.07
2022-11-12T00:07:33.891Z,12.53
2022-11-12T00:10:39.933Z,9.13
2022-11-12T00:13:45.221Z,7.40
2022-11-12T00:16:50.024Z,8.93
2022-11-12T00:19:55.537Z,7.07
2022-11-12T00:23:00.197Z,6.13
2022-11-12T00:26:06.324Z,6.80
2022-11-12T00:29:11.029Z,8.13
2022-11-12T00:32:16.651Z,6.43
2022-11-12T00:35:21.586Z,6.20
2022-11-12T00:38:26.321Z,5.30
2022-11-12T00:41:32.603Z,8.83
2022-11-12T00:44:37.288Z,6.97
2022-11-12T00:47:42.086Z,7.13
2022-11-12T00:50:49.790Z,4.57
2022-11-12T00:53:54.517Z,8.03
2022-11-12T00:57:00.896Z,9.13
2022-11-12T01:00:07.454Z,6.70
2022-11-12T01:03:12.274Z,7.43
2022-11-12T01:06:18.997Z,8.93
2022-11-12T01:09:24.806Z,7.17
2022-11-12T01:12:33.008Z,7.53
2022-11-12T01:15:44.605Z,7.80
2022-11-12T01:18:52.987Z,5.97
2022-11-12T01:21:58.305Z,7.03
2022-11-12T01:25:03.239Z,6.83
2022-11-12T01:31:29.490Z,7.17
2022-11-12T01:34:34.400Z,5.77
2022-11-12T01:37:38.854Z,9.33
2022-11-12T01:40:43.552Z,7.97
2022-11-12T01:43:50.286Z,5.77
2022-11-12T01:47:08.914Z,8.27
2022-11-12T01:50:19.165Z,7.57
2022-11-12T01:53:27.998Z,7.33
2022-11-12T01:56:34.983Z,8.53
2022-11-12T01:59:45.762Z,7.53
2022-11-12T02:02:56.257Z,8.67
2022-11-12T02:06:05.196Z,5.93
2022-11-12T02:09:11.824Z,5.60
2022-11-12T02:12:37.622Z,6.67
2022-11-12T02:15:42.996Z,5.83
2022-11-12T02:18:49.158Z,8.47
2022-11-12T02:21:55.387Z,6.37
2022-11-12T02:25:00.404Z,7.90
2022-11-12T02:28:09.833Z,7.03
2022-11-12T02:31:14.604Z,5.77
2022-11-12T02:34:19.110Z,6.00
2022-11-12T02:37:26.147Z,6.90
2022-11-12T02:40:31.902Z,5.20
2022-11-12T02:43:36.996Z,6.03
2022-11-12T02:46:44.757Z,6.70
2022-11-12T02:49:49.597Z,9.03
2022-11-12T02:52:55.567Z,5.83
2022-11-12T02:56:00.790Z,7.53
2022-11-12T02:59:05.385Z,6.20
2022-11-12T03:02:10.261Z,6.27
2022-11-12T03:05:15.996Z,6.13
2022-11-12T03:08:22.351Z,8.63
2022-11-12T03:11:27.681Z,6.83
2022-11-12T03:14:32.268Z,7.67
2022-11-12T03:17:37.067Z,6.90
2022-11-12T03:20:41.469Z,7.30
2022-11-12T03:23:47.505Z,7.77
2022-11-12T03:26:52.186Z,7.10
2022-11-12T03:29:56.717Z,7.07
2022-11-12T03:33:01.415Z,6.40
2022-11-12T03:36:07.317Z,6.07
2022-11-12T03:39:15.108Z,7.07
2022-11-12T03:42:19.677Z,5.77
2022-11-12T03:45:25.965Z,6.00
2022-11-12T03:48:30.725Z,4.33
2022-11-12T03:51:35.073Z,7.13
2022-11-12T03:54:41.987Z,5.43
2022-11-12T03:57:47.465Z,4.73
2022-11-12T04:00:53.428Z,6.73
2022-11-12T04:03:58.261Z,4.00
2022-11-12T04:07:19.085Z,5.43
2022-11-12T04:10:25.398Z,4.57
2022-11-12T04:13:30.630Z,4.97
2022-11-12T04:16:51.921Z,4.70
2022-11-12T04:20:13.488Z,5.73
2022-11-12T04:23:17.941Z,3.33
2022-11-12T04:26:25.218Z,5.23
2022-11-12T04:29:46.412Z,5.40
2022-11-12T04:32:53.175Z,4.07
2022-11-12T04:35:58.219Z,4.73
2022-11-12T04:39:02.937Z,4.93
2022-11-12T04:42:27.793Z,4.00
2022-11-12T04:45:32.320Z,6.80
2022-11-12T04:48:36.997Z,5.27
2022-11-12T04:52:06.711Z,6.70
2022-11-12T04:55:11.788Z,4.60
2022-11-12T04:58:17.673Z,6.77
2022-11-12T05:01:22.373Z,4.50
2022-11-12T05:04:27.896Z,5.17
2022-11-12T05:07:34.657Z,5.57
2022-11-12T05:10:39.376Z,5.50
2022-11-12T05:13:45.457Z,4.10
2022-11-12T05:16:50.617Z,5.03
2022-11-12T05:19:55.602Z,6.70
2022-11-12T05:23:07.987Z,5.10
2022-11-12T05:26:12.967Z,5.87
2022-11-12T05:29:19.382Z,6.50
2022-11-12T05:32:24.612Z,6.53
2022-11-12T05:35:29.549Z,5.13
2022-11-12T05:38:34.657Z,5.47
2022-11-12T05:42:05.856Z,4.43
2022-11-12T05:45:06.682Z,6.20
2022-11-12T05:48:11.274Z,4.50
2022-11-12T05:51:16.109Z,5.73
2022-11-12T05:54:22.797Z,4.60
2022-11-12T05:57:29.847Z,4.37
2022-11-12T06:00:39.473Z,4.30
2022-11-12T06:03:44.015Z,5.00
2022-11-12T06:06:49.091Z,4.10
2022-11-12T06:09:53.750Z,5.30
2022-11-12T06:12:59.261Z,3.73
2022-11-12T06:16:05.071Z,4.13
2022-11-12T06:19:09.675Z,4.47
2022-11-12T06:22:14.502Z,5.47
2022-11-12T06:25:19.480Z,4.67
2022-11-12T06:28:24.773Z,6.87
2022-11-12T06:31:31.336Z,5.07
2022-11-12T06:34:35.678Z,5.17
2022-11-12T06:37:41.217Z,7.33
2022-11-12T06:40:46.561Z,3.90
2022-11-12T06:43:50.824Z,3.90
2022-11-12T06:46:56.960Z,3.50
2022-11-12T06:50:02.702Z,3.70
2022-11-12T06:53:07.742Z,5.67
2022-11-12T06:56:12.065Z,4.23
2022-11-12T06:59:17.022Z,4.47
2022-11-12T07:02:23.476Z,3.77
2022-11-12T07:05:28.099Z,4.63
2022-11-12T07:08:33.726Z,4.33
2022-11-12T07:11:38.580Z,6.07
2022-11-12T07:14:43.865Z,3.87
2022-11-12T07:17:49.858Z,4.30
2022-11-12T07:20:59.254Z,4.13
2022-11-12T07:24:03.761Z,6.30
2022-11-12T07:27:08.494Z,4.63
2022-11-12T07:30:13.629Z,3.20
2022-11-12T07:33:19.768Z,3.87
2022-11-12T07:36:24.674Z,5.03
2022-11-12T07:39:29.870Z,3.83
2022-11-12T07:42:36.231Z,4.37
2022-11-12T07:45:41.168Z,3.47
2022-11-12T07:48:47.695Z,3.83
2022-11-12T07:51:52.933Z,5.83
2022-11-12T07:54:58.367Z,4.73
2022-11-12T07:58:03.177Z,4.43
2022-11-12T08:01:12.477Z,4.37
2022-11-12T08:04:18.521Z,4.03
2022-11-12T08:07:23.209Z,5.00
2022-11-12T08:10:27.995Z,2.87
2022-11-12T08:13:33.539Z,4.23
2022-11-12T08:16:38.361Z,3.63
2022-11-12T08:19:44.431Z,4.07
2022-11-12T08:22:49.633Z,5.00
2022-11-12T08:25:54.443Z,4.67
2022-11-12T08:29:01.680Z,4.63
2022-11-12T08:32:10.189Z,3.80
2022-11-12T08:35:16.526Z,4.10
2022-11-12T08:38:21.070Z,4.27
2022-11-12T08:41:26.090Z,4.23
2022-11-12T08:44:31.022Z,3.80
2022-11-12T08:47:35.634Z,3.93
2022-11-12T08:50:42.651Z,4.50
2022-11-12T08:53:47.659Z,5.40
2022-11-12T08:56:52.800Z,4.07
2022-11-12T08:59:57.677Z,4.03
2022-11-12T09:03:02.910Z,4.33
2022-11-12T09:06:09.322Z,4.93
2022-11-12T09:09:14.361Z,6.53
2022-11-12T09:12:19.903Z,4.33
2022-11-12T09:15:37.323Z,4.73
2022-11-12T09:18:40.440Z,6.03
2022-11-12T09:21:44.472Z,6.10
2022-11-12T09:24:47.169Z,4.33
2022-11-12T09:27:49.853Z,4.20
2022-11-12T09:30:53.971Z,4.43
2022-11-12T09:33:56.669Z,4.23
2022-11-12T09:37:00.784Z,4.00
2022-11-12T09:40:03.430Z,3.73
2022-11-12T09:43:16.704Z,3.70
2022-11-12T09:46:30.568Z,4.03
2022-11-12T09:49:37.889Z,3.50
2022-11-12T09:52:45.111Z,4.40
2022-11-12T09:55:51.024Z,5.60
2022-11-12T09:58:54.648Z,3.80
2022-11-12T10:02:11.505Z,5.80
2022-11-12T10:05:23.639Z,6.47
2022-11-12T10:08:39.349Z,4.60
2022-11-12T10:12:18.032Z,5.17
2022-11-12T10:15:57.700Z,4.70
2022-11-12T10:19:16.871Z,4.67
2022-11-12T10:22:35.747Z,5.57
2022-11-12T10:25:42.643Z,5.07
2022-11-12T10:28:48.691Z,4.57
2022-11-12T10:31:51.361Z,4.53
2022-11-12T10:34:54.102Z,4.43
2022-11-12T10:38:00.633Z,4.30
2022-11-12T10:41:20.271Z,4.60
2022-11-12T10:44:27.423Z,4.67
2022-11-12T10:47:33.421Z,5.13
2022-11-12T10:50:40.979Z,5.53
2022-11-12T10:53:43.666Z,5.00
2022-11-12T10:56:55.117Z,4.40
2022-11-12T11:00:09.372Z,4.80
2022-11-12T11:03:20.564Z,5.67
2022-11-12T11:06:26.890Z,4.10
2022-11-12T11:09:29.590Z,3.97
2022-11-12T11:12:35.190Z,4.93
2022-11-12T11:15:39.162Z,3.47
2022-11-12T11:18:43.768Z,5.57
2022-11-12T11:22:09.175Z,6.30
2022-11-12T11:25:19.707Z,4.85
2022-11-12T11:28:34.368Z,5.30
2022-11-12T11:31:46.624Z,4.32
2022-11-12T11:34:58.369Z,4.23
2022-11-12T11:38:15.651Z,5.10
2022-11-12T11:41:42.938Z,4.37
2022-11-12T11:44:57.125Z,3.93
2022-11-12T11:48:12.254Z,4.03
2022-11-12T11:51:39.337Z,4.03
2022-11-12T11:55:01.088Z,3.85
2022-11-12T11:58:13.660Z,3.70
2022-11-12T12:01:22.855Z,3.97
2022-11-12T12:04:46.019Z,3.05
2022-11-12T12:07:55.975Z,5.30
2022-11-12T12:11:09.275Z,3.58
2022-11-12T12:14:24.411Z,3.83
2022-11-12T12:17:48.844Z,3.72
2022-11-12T12:20:59.733Z,5.05
2022-11-12T12:24:05.387Z,4.25
2022-11-12T12:27:12.586Z,4.07
2022-11-12T12:30:20.816Z,4.32
2022-11-12T12:33:33.344Z,4.97
2022-11-12T12:36:40.576Z,3.63
2022-11-12T12:39:49.787Z,3.28
2022-11-12T12:42:57.522Z,4.93
2022-11-12T12:46:00.457Z,3.95
2022-11-12T12:49:07.621Z,3.30
2022-11-12T12:52:13.784Z,2.97
2022-11-12T12:55:40.001Z,5.38
2022-11-12T12:58:45.853Z,3.58
2022-11-12T13:01:57.780Z,3.67
2022-11-12T13:05:01.837Z,4.38
2022-11-12T13:08:08.756Z,3.90
2022-11-12T13:11:38.618Z,5.28
2022-11-12T13:15:13.371Z,3.72
2022-11-12T13:19:02.120Z,4.43
2022-11-12T13:22:52.062Z,5.88
2022-11-12T13:26:33.628Z,5.60
2022-11-12T13:29:46.351Z,4.90
2022-11-12T13:32:56.597Z,4.30
2022-11-12T13:36:26.023Z,3.95
2022-11-12T13:39:34.905Z,3.63
2022-11-12T13:42:50.966Z,4.35
2022-11-12T13:45:56.920Z,3.65
2022-11-12T13:49:03.060Z,5.50
2022-11-12T13:52:07.176Z,4.50
2022-11-12T13:55:16.653Z,5.30
2022-11-12T13:58:29.376Z,4.80
2022-11-12T14:01:33.512Z,4.68
2022-11-12T14:04:36.562Z,5.40
2022-11-12T14:07:51.104Z,4.57
2022-11-12T14:11:14.226Z,5.88
2022-11-12T14:14:26.819Z,4.35
2022-11-12T14:17:39.815Z,6.68
2022-11-12T14:20:43.066Z,5.22
2022-11-12T14:23:48.800Z,6.10
2022-11-12T14:26:53.170Z,5.00
2022-11-12T14:30:11.940Z,5.97
2022-11-12T14:33:21.051Z,3.97
2022-11-12T14:36:24.701Z,4.97
2022-11-12T14:39:30.310Z,4.95
2022-11-12T14:42:36.219Z,5.40
2022-11-12T14:45:39.008Z,4.65
2022-11-12T14:48:50.612Z,3.95
2022-11-12T14:51:57.784Z,3.53
2022-11-12T14:55:11.332Z,5.63
2022-11-12T14:58:16.736Z,4.55
2022-11-12T15:02:08.808Z,4.15
2022-11-12T15:04:46.283Z,6.07
2022-11-12T15:07:55.211Z,4.03
2022-11-12T15:10:58.835Z,4.57
2022-11-12T15:14:04.481Z,4.27
2022-11-12T15:17:07.447Z,5.73
2022-11-12T15:20:15.901Z,4.82
2022-11-12T15:23:19.710Z,5.27
2022-11-12T15:26:32.110Z,5.20
2022-11-12T15:29:37.135Z,5.23
2022-11-12T15:32:39.767Z,4.47
2022-11-12T15:35:44.046Z,4.87
2022-11-12T15:38:49.951Z,4.73
2022-11-12T15:41:59.167Z,5.80
2022-11-12T15:45:05.937Z,5.83
2022-11-12T15:48:10.864Z,6.20
2022-11-12T15:51:18.369Z,5.17
2022-11-12T15:54:21.017Z,5.87
2022-11-12T15:57:26.601Z,8.37
2022-11-12T16:00:35.762Z,5.87
2022-11-12T16:03:38.445Z,4.70
2022-11-12T16:06:41.126Z,5.77
2022-11-12T16:09:44.133Z,5.77
2022-11-12T16:12:48.074Z,5.10
2022-11-12T16:15:52.984Z,5.50
2022-11-12T16:18:55.620Z,6.70
2022-11-12T16:21:58.277Z,6.80
2022-11-12T16:25:00.945Z,4.63
2022-11-12T16:28:05.004Z,7.17
2022-11-12T16:31:09.321Z,6.20
2022-11-12T16:34:12.620Z,5.73
2022-11-12T16:37:16.025Z,5.00
2022-11-12T16:40:20.884Z,5.40
2022-11-12T16:43:23.505Z,5.33
2022-11-12T16:46:39.259Z,4.83
2022-11-12T16:49:42.757Z,7.10
2022-11-12T16:52:45.668Z,6.77
2022-11-12T16:55:48.349Z,6.63
2022-11-12T16:58:52.041Z,5.37
2022-11-12T17:01:56.085Z,10.07
2022-11-12T17:04:58.848Z,5.23
2022-11-12T17:08:01.519Z,5.57
2022-11-12T17:11:09.666Z,5.77
2022-11-12T17:14:12.388Z,5.93
2022-11-12T17:17:16.422Z,6.10
2022-11-12T17:20:19.518Z,6.10
2022-11-12T17:23:22.188Z,5.37
2022-11-12T17:26:24.942Z,8.23
2022-11-12T17:29:28.361Z,6.30
2022-11-12T17:32:32.397Z,4.87
2022-11-12T17:35:35.739Z,5.23
2022-11-12T17:38:38.637Z,5.90
2022-11-12T17:41:41.421Z,6.70
2022-11-12T17:44:45.615Z,5.87
2022-11-12T17:47:49.645Z,7.27
2022-11-12T17:50:53.419Z,8.53
2022-11-12T17:53:56.426Z,6.47
2022-11-12T17:56:59.194Z,7.07
2022-11-12T18:00:01.926Z,7.43
2022-11-12T18:03:06.222Z,7.03
2022-11-12T18:06:13.153Z,8.70
2022-11-12T18:09:16.734Z,6.70
2022-11-12T18:12:19.473Z,9.50
2022-11-12T18:15:25.178Z,8.37
2022-11-12T18:18:29.849Z,7.43
2022-11-12T18:21:32.639Z,8.50
2022-11-12T18:24:35.474Z,5.20
2022-11-12T18:27:38.575Z,8.37
2022-11-12T18:30:41.281Z,6.47
2022-11-12T18:33:45.365Z,6.83
2022-11-12T18:36:48.042Z,7.17
2022-11-12T18:39:50.844Z,7.43
2022-11-12T18:42:54.321Z,9.00
2022-11-12T18:45:58.368Z,10.00
2022-11-12T18:49:02.746Z,9.17
2022-11-12T18:52:05.757Z,7.73
2022-11-12T18:55:09.596Z,6.60
2022-11-12T18:58:12.314Z,7.43
2022-11-12T19:01:16.687Z,4.73
2022-11-12T19:04:20.772Z,6.17
2022-11-12T19:07:23.605Z,6.40
2022-11-12T19:10:26.342Z,6.77
2022-11-12T19:13:29.855Z,7.30
2022-11-12T19:16:32.970Z,7.80
2022-11-12T19:19:37.069Z,8.03
2022-11-12T19:22:39.712Z,9.03
2022-11-12T19:25:42.450Z,6.53
2022-11-12T19:28:46.370Z,6.83
2022-11-12T19:31:49.014Z,6.03
2022-11-12T19:34:53.019Z,5.80
2022-11-12T19:37:55.660Z,6.47
2022-11-12T19:41:04.107Z,5.17
2022-11-12T19:44:07.172Z,5.30
2022-11-12T19:47:09.821Z,6.80
2022-11-12T19:50:14.086Z,6.07
2022-11-12T19:53:16.992Z,7.80
2022-11-12T19:56:21.516Z,7.00
2022-11-12T19:59:24.209Z,5.97
2022-11-12T20:02:27.106Z,9.10
2022-11-12T20:05:31.832Z,7.63
2022-11-12T20:08:34.720Z,7.30
2022-11-12T20:11:37.692Z,8.53
2022-11-12T20:14:40.398Z,9.50
2022-11-12T20:17:43.082Z,8.13
2022-11-12T20:20:53.504Z,7.37
2022-11-12T20:23:56.157Z,6.10
2022-11-12T20:26:58.837Z,7.50
2022-11-12T20:30:01.481Z,6.57
2022-11-12T20:33:04.238Z,7.73
2022-11-12T20:36:10.264Z,7.07
2022-11-12T20:39:12.931Z,6.37
2022-11-12T20:42:15.583Z,6.83
2022-11-12T20:45:18.441Z,7.03
2022-11-12T20:48:21.353Z,7.83
2022-11-12T20:51:28.568Z,8.33
2022-11-12T20:54:31.239Z,8.20
2022-11-12T20:57:33.840Z,7.30
2022-11-12T21:00:36.671Z,7.57
2022-11-12T21:03:40.681Z,9.10
2022-11-12T21:06:45.109Z,8.60
2022-11-12T21:09:47.895Z,8.07
2022-11-12T21:12:50.547Z,7.67
2022-11-12T21:15:56.750Z,9.63
2022-11-12T21:19:04.175Z,11.53
2022-11-12T21:22:14.657Z,8.97
2022-11-12T21:25:21.412Z,11.10
2022-11-12T21:28:27.563Z,8.30
2022-11-12T21:31:33.945Z,11.77
2022-11-12T21:34:41.984Z,9.17
2022-11-12T21:37:50.913Z,11.50
2022-11-12T21:41:05.076Z,15.27
2022-11-12T21:44:13.785Z,13.90
2022-11-12T21:47:19.926Z,10.70
2022-11-12T21:50:25.700Z,9.30
2022-11-12T21:53:34.301Z,10.13
2022-11-12T21:56:41.161Z,11.50
2022-11-12T21:59:49.811Z,9.73
2022-11-12T22:02:58.944Z,10.03
2022-11-12T22:06:06.463Z,10.17
2022-11-12T22:09:15.831Z,9.50
2022-11-12T22:12:24.599Z,12.03
2022-11-12T22:15:37.302Z,10.57
2022-11-12T22:18:47.969Z,11.60
2022-11-12T22:21:55.483Z,9.73
2022-11-12T22:25:09.840Z,8.90
2022-11-12T22:28:17.763Z,9.23
2022-11-12T22:31:28.111Z,9.20
2022-11-12T22:34:35.501Z,7.43
2022-11-12T22:37:42.696Z,11.17
2022-11-12T22:40:54.486Z,8.80
2022-11-12T22:44:06.111Z,10.00
2022-11-12T22:47:13.242Z,11.20
2022-11-12T22:50:19.125Z,9.53
2022-11-12T22:53:38.887Z,9.17
2022-11-12T22:56:52.305Z,13.47
2022-11-12T23:00:02.060Z,11.83
2022-11-12T23:03:11.436Z,9.43
2022-11-12T23:06:21.294Z,12.37
2022-11-12T23:09:31.858Z,10.07
2022-11-12T23:12:39.757Z,10.23
2022-11-12T23:15:50.076Z,8.73
2022-11-12T23:18:57.764Z,11.30
2022-11-12T23:22:07.923Z,12.20
2022-11-12T23:25:22.248Z,15.50
2022-11-12T23:28:43.151Z,18.17
2022-11-12T23:31:56.583Z,12.17
2022-11-12T23:35:04.454Z,16.30
2022-11-12T23:38:25.201Z,16.23
2022-11-12T23:41:37.601Z,15.17
2022-11-12T23:44:50.324Z,16.07
2022-11-12T23:48:00.170Z,16.57
2022-11-12T23:51:09.078Z,13.07
2022-11-12T23:54:22.799Z,14.93
2022-11-12T23:57:26.242Z,19.17
